createdAt,value
2023-02-19T00:00:15.201Z,98686.47
2023-02-19T00:02:42.775Z,98679.16
2023-02-19T00:05:09.702Z,98669.72
2023-02-19T00:07:36.729Z,98656.69
2023-02-19T00:10:03.695Z,98671.47
2023-02-19T00:12:30.603Z,98657.66
2023-02-19T00:14:58.969Z,98662.38
2023-02-19T00:17:26.085Z,98674.97
2023-02-19T00:19:53.122Z,98666.50
2023-02-19T00:22:20.048Z,98669.00
2023-02-19T00:24:49.302Z,98663.63
2023-02-19T00:27:16.336Z,98666.31
2023-02-19T00:29:43.487Z,98662.75
2023-02-19T00:32:12.603Z,98647.00
2023-02-19T00:34:39.860Z,98636.94
2023-02-19T00:37:06.990Z,98623.34
2023-02-19T00:39:33.926Z,98630.63
2023-02-19T00:42:00.949Z,98628.06
2023-02-19T00:44:27.919Z,98626.66
2023-02-19T00:46:54.888Z,98627.28
2023-02-19T00:49:24.423Z,98628.06
2023-02-19T00:51:52.645Z,98626.66
2023-02-19T00:54:20.493Z,98619.00
2023-02-19T00:56:47.499Z,98607.81
2023-02-19T00:59:14.852Z,98616.66
2023-02-19T01:01:42.634Z,98619.41
2023-02-19T01:04:11.532Z,98606.00
2023-02-19T01:06:39.842Z,98608.00
2023-02-19T01:09:07.890Z,98608.63
2023-02-19T01:11:35.199Z,98601.72
2023-02-19T01:14:03.605Z,98595.41
2023-02-19T01:16:31.097Z,98600.13
2023-02-19T01:18:58.525Z,98589.88
2023-02-19T01:21:28.076Z,98594.22
2023-02-19T01:23:57.026Z,98603.63
2023-02-19T01:26:27.815Z,98599.94
2023-02-19T01:28:54.995Z,98601.31
2023-02-19T01:31:27.035Z,98592.28
2023-02-19T01:33:55.932Z,98601.16
2023-02-19T01:36:23.875Z,98596.44
2023-02-19T01:38:51.040Z,98592.91
2023-02-19T01:41:22.108Z,98598.03
2023-02-19T01:44:01.525Z,98591.34
2023-02-19T01:46:30.149Z,98589.53
2023-02-19T01:49:00.404Z,98601.38
2023-02-19T01:51:28.779Z,98604.72
2023-02-19T01:53:58.341Z,98602.94
2023-02-19T01:56:28.018Z,98601.97
2023-02-19T01:58:55.398Z,98608.88
2023-02-19T02:01:22.556Z,98605.31
2023-02-19T02:03:52.063Z,98613.78
2023-02-19T02:06:23.862Z,98612.00
2023-02-19T02:09:11.700Z,98606.50
2023-02-19T02:11:44.329Z,98609.25
2023-02-19T02:14:12.103Z,98606.44
2023-02-19T02:16:46.452Z,98621.03
2023-02-19T02:19:30.900Z,98615.88
2023-02-19T02:22:07.609Z,98621.38
2023-02-19T02:24:53.220Z,98627.06
2023-02-19T02:27:34.488Z,98623.69
2023-02-19T02:30:15.404Z,98623.75
2023-02-19T02:32:53.480Z,98616.00
2023-02-19T02:35:25.007Z,98617.34
2023-02-19T02:37:55.352Z,98615.94
2023-02-19T02:40:22.636Z,98618.50
2023-02-19T02:42:49.617Z,98621.06
2023-02-19T02:45:35.569Z,98620.47
2023-02-19T02:48:28.836Z,98624.97
2023-02-19T02:51:05.701Z,98637.53
2023-02-19T02:54:04.068Z,98639.81
2023-02-19T02:56:31.743Z,98637.81
2023-02-19T02:59:04.245Z,98641.72
2023-02-19T03:01:56.838Z,98643.56
2023-02-19T03:04:29.647Z,98643.81
2023-02-19T03:07:00.093Z,98643.31
2023-02-19T03:09:40.695Z,98635.66
2023-02-19T03:12:32.254Z,98638.88
2023-02-19T03:15:23.250Z,98630.47
2023-02-19T03:18:17.850Z,98629.19
2023-02-19T03:20:48.439Z,98630.78
2023-02-19T03:23:17.521Z,98635.88
2023-02-19T03:26:03.511Z,98649.25
2023-02-19T03:29:06.788Z,98658.13
2023-02-19T03:31:38.208Z,98667.63
2023-02-19T03:34:10.209Z,98666.41
2023-02-19T03:36:42.382Z,98675.47
2023-02-19T03:39:12.781Z,98682.78
2023-02-19T03:41:45.160Z,98681.81
2023-02-19T03:44:18.266Z,98689.28
2023-02-19T03:46:50.929Z,98683.41
2023-02-19T03:49:27.424Z,98687.47
2023-02-19T03:52:01.280Z,98686.59
2023-02-19T03:54:35.312Z,98682.00
2023-02-19T03:57:08.417Z,98684.56
2023-02-19T03:59:41.941Z,98683.59
2023-02-19T04:02:13.353Z,98685.59
2023-02-19T04:04:45.703Z,98693.78
2023-02-19T04:07:13.268Z,98710.88
2023-02-19T04:09:45.641Z,98707.34
2023-02-19T04:12:19.075Z,98711.13
2023-02-19T04:14:52.592Z,98716.84
2023-02-19T04:17:24.439Z,98729.41
2023-02-19T04:19:54.589Z,98726.63
2023-02-19T04:22:22.644Z,98723.25
2023-02-19T04:24:52.236Z,98735.84
2023-02-19T04:27:19.683Z,98731.19
2023-02-19T04:29:46.910Z,98728.88
2023-02-19T04:32:14.301Z,98727.75
2023-02-19T04:34:41.282Z,98739.19
2023-02-19T04:37:09.575Z,98739.78
2023-02-19T04:39:36.523Z,98735.22
2023-02-19T04:42:03.521Z,98737.16
2023-02-19T04:44:30.464Z,98745.97
2023-02-19T04:46:57.401Z,98751.09
2023-02-19T04:49:24.323Z,98752.91
2023-02-19T04:51:51.190Z,98752.56
2023-02-19T04:54:19.460Z,98756.97
2023-02-19T04:56:46.421Z,98747.44
2023-02-19T04:59:13.527Z,98746.56
2023-02-19T05:01:40.485Z,98740.72
2023-02-19T05:04:07.440Z,98733.31
2023-02-19T05:06:34.465Z,98735.66
2023-02-19T05:09:01.374Z,98736.03
2023-02-19T05:11:29.755Z,98743.81
2023-02-19T05:13:56.902Z,98743.00
2023-02-19T05:16:23.913Z,98743.16
2023-02-19T05:18:50.832Z,98745.25
2023-02-19T05:21:17.778Z,98748.97
2023-02-19T05:23:44.767Z,98747.88
2023-02-19T05:26:17.110Z,98757.41
2023-02-19T05:28:45.547Z,98769.66
2023-02-19T05:31:13.218Z,98767.00
2023-02-19T05:33:42.510Z,98769.31
2023-02-19T05:36:11.513Z,98771.94
2023-02-19T05:38:39.442Z,98768.63
2023-02-19T05:41:11.744Z,98787.59
2023-02-19T05:43:39.309Z,98775.38
2023-02-19T05:46:08.319Z,98796.88
2023-02-19T05:48:35.801Z,98797.66
2023-02-19T05:51:03.956Z,98817.41
2023-02-19T05:53:30.994Z,98814.25
2023-02-19T05:55:58.157Z,98821.94
2023-02-19T05:58:27.817Z,98830.41
2023-02-19T06:00:55.488Z,98833.56
2023-02-19T06:03:23.971Z,98838.53
2023-02-19T06:05:51.262Z,98839.09
2023-02-19T06:08:18.314Z,98835.13
2023-02-19T06:10:45.434Z,98824.44
2023-02-19T06:13:12.377Z,98813.53
2023-02-19T06:15:39.498Z,98822.16
2023-02-19T06:18:06.503Z,98816.00
2023-02-19T06:20:34.852Z,98812.97
2023-02-19T06:23:01.808Z,98818.25
2023-02-19T06:25:28.743Z,98827.28
2023-02-19T06:27:55.748Z,98823.59
2023-02-19T06:30:22.781Z,98817.69
2023-02-19T06:32:52.765Z,98822.41
2023-02-19T06:35:19.898Z,98813.06
2023-02-19T06:37:48.372Z,98817.03
2023-02-19T06:40:15.772Z,98813.69
2023-02-19T06:42:42.792Z,98809.03
2023-02-19T06:45:09.816Z,98807.84
2023-02-19T06:47:36.751Z,98804.97
2023-02-19T06:50:03.775Z,98811.75
2023-02-19T06:52:30.676Z,98818.34
2023-02-19T06:54:58.972Z,98822.31
2023-02-19T06:57:25.873Z,98815.50
2023-02-19T06:59:52.765Z,98813.53
2023-02-19T07:02:19.677Z,98805.22
2023-02-19T07:04:46.581Z,98802.22
2023-02-19T07:07:13.522Z,98790.88
2023-02-19T07:09:40.435Z,98793.69
2023-02-19T07:12:10.101Z,98799.06
2023-02-19T07:14:37.041Z,98795.38
2023-02-19T07:17:04.042Z,98799.31
2023-02-19T07:19:30.958Z,98794.47
2023-02-19T07:21:57.853Z,98784.56
2023-02-19T07:24:24.782Z,98791.63
2023-02-19T07:26:51.709Z,98788.97
2023-02-19T07:29:20.044Z,98798.16
2023-02-19T07:31:46.994Z,98795.44
2023-02-19T07:34:13.962Z,98791.31
2023-02-19T07:36:41.040Z,98787.19
2023-02-19T07:39:10.134Z,98791.38
2023-02-19T07:41:37.403Z,98791.56
2023-02-19T07:44:06.250Z,98788.44
2023-02-19T07:46:34.737Z,98787.50
2023-02-19T07:49:01.637Z,98784.34
2023-02-19T07:51:28.586Z,98788.81
2023-02-19T07:53:55.575Z,98787.19
2023-02-19T07:56:22.495Z,98796.00
2023-02-19T07:58:49.563Z,98790.47
2023-02-19T08:01:18.917Z,98786.16
2023-02-19T08:03:50.327Z,98804.28
2023-02-19T08:06:17.498Z,98804.81
2023-02-19T08:08:44.404Z,98801.97
2023-02-19T08:11:30.036Z,98801.38
2023-02-19T08:13:56.764Z,98806.06
2023-02-19T08:16:40.725Z,98792.22
2023-02-19T08:19:11.145Z,98792.13
2023-02-19T08:21:38.079Z,98802.44
2023-02-19T08:24:05.753Z,98799.47
2023-02-19T08:26:33.027Z,98808.16
2023-02-19T08:29:00.017Z,98801.38
2023-02-19T08:31:27.336Z,98808.69
2023-02-19T08:33:55.079Z,98820.22
2023-02-19T08:36:23.390Z,98821.91
2023-02-19T08:38:50.386Z,98818.25
2023-02-19T08:41:17.377Z,98813.28
2023-02-19T08:43:44.287Z,98820.81
2023-02-19T08:46:12.841Z,98817.88
2023-02-19T08:48:40.669Z,98812.09
2023-02-19T08:51:09.791Z,98814.16
2023-02-19T08:53:40.791Z,98808.03
2023-02-19T08:56:09.017Z,98812.38
2023-02-19T08:58:37.446Z,98802.72
2023-02-19T09:01:09.000Z,98792.13
2023-02-19T09:03:36.688Z,98785.75
2023-02-19T09:06:04.122Z,98799.06
2023-02-19T09:08:31.349Z,98804.88
2023-02-19T09:11:00.407Z,98803.09
2023-02-19T09:13:27.720Z,98801.41
2023-02-19T09:15:54.770Z,98806.78
2023-02-19T09:18:21.746Z,98801.13
2023-02-19T09:20:48.709Z,98800.56
2023-02-19T09:23:15.602Z,98780.69
2023-02-19T09:25:42.540Z,98795.41
2023-02-19T09:28:10.863Z,98797.47
2023-02-19T09:30:37.843Z,98807.56
2023-02-19T09:33:05.189Z,98791.53
2023-02-19T09:35:32.116Z,98791.88
2023-02-19T09:37:59.627Z,98784.94
2023-02-19T09:40:26.714Z,98784.47
2023-02-19T09:42:53.653Z,98783.22
2023-02-19T09:45:24.787Z,98779.38
2023-02-19T09:47:55.082Z,98784.06
2023-02-19T09:50:31.792Z,98775.50
2023-02-19T09:53:03.188Z,98776.03
2023-02-19T09:55:34.582Z,98782.28
2023-02-19T09:58:07.814Z,98763.50
2023-02-19T10:00:37.555Z,98756.47
2023-02-19T10:03:10.577Z,98739.28
2023-02-19T10:05:39.902Z,98742.41
2023-02-19T10:08:12.809Z,98738.75
2023-02-19T10:10:41.184Z,98734.59
2023-02-19T10:13:18.363Z,98736.94
2023-02-19T10:15:48.951Z,98742.41
2023-02-19T10:18:22.573Z,98733.28
2023-02-19T10:20:52.151Z,98717.91
2023-02-19T10:23:20.283Z,98718.44
2023-02-19T10:25:49.846Z,98715.56
2023-02-19T10:28:19.271Z,98716.59
2023-02-19T10:30:52.779Z,98710.06
2023-02-19T10:33:20.281Z,98711.88
2023-02-19T10:35:56.287Z,98697.25
2023-02-19T10:38:28.350Z,98711.81
2023-02-19T10:41:06.028Z,98715.44
2023-02-19T10:43:37.032Z,98713.44
2023-02-19T10:46:08.572Z,98718.38
2023-02-19T10:48:38.420Z,98707.69
2023-02-19T10:51:08.694Z,98688.56
2023-02-19T10:53:41.484Z,98685.91
2023-02-19T10:56:10.626Z,98693.97
2023-02-19T10:58:40.161Z,98685.81
2023-02-19T11:01:27.124Z,98688.47
2023-02-19T11:04:15.370Z,98682.25
2023-02-19T11:06:42.359Z,98671.28
2023-02-19T11:09:24.959Z,98677.47
2023-02-19T11:11:53.356Z,98672.75
2023-02-19T11:14:24.244Z,98668.84
2023-02-19T11:16:57.671Z,98674.28
2023-02-19T11:19:29.015Z,98672.16
2023-02-19T11:21:56.917Z,98656.97
2023-02-19T11:24:29.496Z,98662.59
2023-02-19T11:26:57.250Z,98673.59
2023-02-19T11:29:28.687Z,98661.38
2023-02-19T11:31:57.368Z,98659.50
2023-02-19T11:34:30.129Z,98642.31
2023-02-19T11:37:11.901Z,98647.47
2023-02-19T11:39:41.159Z,98637.69
2023-02-19T11:42:22.959Z,98650.66
2023-02-19T11:45:03.155Z,98650.00
2023-02-19T11:47:55.496Z,98650.47
2023-02-19T11:50:27.639Z,98644.22
2023-02-19T11:53:04.892Z,98642.66
2023-02-19T11:55:46.413Z,98646.38
2023-02-19T11:58:42.822Z,98642.16
2023-02-19T12:01:20.307Z,98641.72
2023-02-19T12:04:07.909Z,98647.75
2023-02-19T12:06:46.071Z,98636.78
2023-02-19T12:09:22.381Z,98648.31
2023-02-19T12:12:05.908Z,98634.00
2023-02-19T12:15:00.523Z,98649.41
2023-02-19T12:17:57.313Z,98636.66
2023-02-19T12:20:34.695Z,98629.34
2023-02-19T12:23:26.127Z,98642.38
2023-02-19T12:25:59.426Z,98641.31
2023-02-19T12:28:38.189Z,98630.13
2023-02-19T12:31:19.963Z,98629.09
2023-02-19T12:34:04.267Z,98629.34
2023-02-19T12:36:42.396Z,98616.81
2023-02-19T12:39:22.846Z,98614.22
2023-02-19T12:41:58.816Z,98615.81
2023-02-19T12:44:36.117Z,98605.88
2023-02-19T12:47:06.740Z,98620.19
2023-02-19T12:49:37.744Z,98615.19
2023-02-19T12:52:11.268Z,98614.69
2023-02-19T12:54:40.499Z,98612.34
2023-02-19T12:57:13.619Z,98599.00
2023-02-19T12:59:46.033Z,98583.88
2023-02-19T13:02:18.783Z,98583.84
2023-02-19T13:04:53.871Z,98585.09
2023-02-19T13:07:26.050Z,98582.38
2023-02-19T13:09:58.415Z,98565.91
2023-02-19T13:12:29.184Z,98570.56
2023-02-19T13:14:59.105Z,98561.50
2023-02-19T13:17:32.067Z,98565.53
2023-02-19T13:20:05.361Z,98570.31
2023-02-19T13:22:59.295Z,98563.38
2023-02-19T13:25:40.132Z,98556.41
2023-02-19T13:28:16.712Z,98562.16
2023-02-19T13:31:13.193Z,98572.03
2023-02-19T13:33:48.271Z,98554.88
2023-02-19T13:36:20.413Z,98563.72
2023-02-19T13:38:50.373Z,98548.63
2023-02-19T13:41:28.847Z,98546.03
2023-02-19T13:43:59.434Z,98547.56
2023-02-19T13:46:35.998Z,98545.47
2023-02-19T13:49:45.533Z,98543.94
2023-02-19T13:52:40.656Z,98550.69
2023-02-19T13:55:42.075Z,98532.19
2023-02-19T13:58:55.042Z,98543.34
2023-02-19T14:01:55.502Z,98537.66
2023-02-19T14:04:26.346Z,98544.44
2023-02-19T14:07:37.368Z,98535.63
2023-02-19T14:10:11.308Z,98533.78
2023-02-19T14:12:38.499Z,98541.06
2023-02-19T14:15:44.211Z,98538.22
2023-02-19T14:18:47.548Z,98545.50
2023-02-19T14:21:22.408Z,98551.69
2023-02-19T14:23:53.101Z,98543.03
2023-02-19T14:26:21.195Z,98541.22
2023-02-19T14:28:49.832Z,98544.31
2023-02-19T14:31:25.166Z,98540.09
2023-02-19T14:33:53.658Z,98538.75
2023-02-19T14:36:31.217Z,98536.09
2023-02-19T14:39:02.051Z,98542.84
2023-02-19T14:41:32.453Z,98537.66
2023-02-19T14:44:02.224Z,98532.41
2023-02-19T14:46:31.523Z,98543.53
2023-02-19T14:49:03.908Z,98528.91
2023-02-19T14:51:36.581Z,98520.31
2023-02-19T14:54:13.073Z,98534.59
2023-02-19T14:56:45.799Z,98532.97
2023-02-19T14:59:25.272Z,98531.91
2023-02-19T15:01:57.589Z,98538.84
2023-02-19T15:04:26.440Z,98542.44
2023-02-19T15:06:57.132Z,98522.44
2023-02-19T15:09:31.133Z,98530.41
2023-02-19T15:11:58.432Z,98533.75
2023-02-19T15:14:28.708Z,98528.53
2023-02-19T15:16:59.811Z,98514.75
2023-02-19T15:19:28.330Z,98518.34
2023-02-19T15:21:57.096Z,98520.66
2023-02-19T15:24:24.505Z,98511.56
2023-02-19T15:26:54.206Z,98509.16
2023-02-19T15:29:23.213Z,98516.44
2023-02-19T15:31:52.604Z,98506.56
2023-02-19T15:34:22.126Z,98510.66
2023-02-19T15:36:50.689Z,98512.66
2023-02-19T15:39:25.061Z,98515.19
2023-02-19T15:41:55.578Z,98517.75
2023-02-19T15:44:39.333Z,98515.63
2023-02-19T15:47:13.920Z,98528.28
2023-02-19T15:49:48.080Z,98518.94
2023-02-19T15:52:25.502Z,98528.69
2023-02-19T15:54:59.555Z,98523.94
2023-02-19T15:57:40.601Z,98524.66
2023-02-19T16:00:15.663Z,98522.81
2023-02-19T16:02:43.169Z,98529.75
2023-02-19T16:05:17.910Z,98520.28
2023-02-19T16:07:47.685Z,98524.56
2023-02-19T16:10:24.137Z,98529.63
2023-02-19T16:12:58.788Z,98536.78
2023-02-19T16:15:27.371Z,98543.25
2023-02-19T16:17:55.124Z,98531.22
2023-02-19T16:20:25.799Z,98526.03
2023-02-19T16:22:57.830Z,98531.13
2023-02-19T16:25:33.573Z,98532.63
2023-02-19T16:28:12.872Z,98525.91
2023-02-19T16:30:40.060Z,98532.88
2023-02-19T16:33:24.756Z,98535.47
2023-02-19T16:35:52.583Z,98533.09
2023-02-19T16:38:21.033Z,98532.03
2023-02-19T16:41:11.399Z,98532.72
2023-02-19T16:43:40.824Z,98528.75
2023-02-19T16:46:11.796Z,98526.63
2023-02-19T16:48:38.986Z,98538.25
2023-02-19T16:51:07.377Z,98533.56
2023-02-19T16:53:34.836Z,98541.00
2023-02-19T16:56:01.984Z,98536.28
2023-02-19T16:58:32.322Z,98536.53
2023-02-19T17:00:59.607Z,98538.56
2023-02-19T17:03:26.680Z,98539.84
2023-02-19T17:05:53.690Z,98541.06
2023-02-19T17:08:31.378Z,98539.22
2023-02-19T17:11:00.463Z,98547.22
2023-02-19T17:13:27.501Z,98543.25
2023-02-19T17:15:55.881Z,98545.63
2023-02-19T17:18:23.168Z,98541.25
2023-02-19T17:20:54.598Z,98542.25
2023-02-19T17:23:22.997Z,98545.56
2023-02-19T17:25:51.709Z,98555.28
2023-02-19T17:28:19.028Z,98547.91
2023-02-19T17:30:45.989Z,98546.47
2023-02-19T17:33:14.477Z,98541.78
2023-02-19T17:35:42.442Z,98558.19
2023-02-19T17:38:10.551Z,98555.63
2023-02-19T17:40:38.245Z,98539.56
2023-02-19T17:43:05.863Z,98534.88
2023-02-19T17:45:33.746Z,98539.00
2023-02-19T17:48:00.817Z,98535.88
2023-02-19T17:50:31.083Z,98539.91
2023-02-19T17:52:58.783Z,98538.34
2023-02-19T17:55:25.934Z,98548.13
2023-02-19T17:57:53.293Z,98530.97
2023-02-19T18:00:22.520Z,98543.03
2023-02-19T18:02:49.607Z,98540.56
2023-02-19T18:05:16.707Z,98546.41
2023-02-19T18:07:45.672Z,98531.06
2023-02-19T18:10:13.628Z,98538.25
2023-02-19T18:12:40.869Z,98540.28
2023-02-19T18:15:11.273Z,98531.97
2023-02-19T18:17:38.301Z,98532.44
2023-02-19T18:20:06.669Z,98527.75
2023-02-19T18:22:33.763Z,98530.56
2023-02-19T18:25:02.064Z,98522.25
2023-02-19T18:27:28.983Z,98526.63
2023-02-19T18:29:56.457Z,98526.31
2023-02-19T18:32:24.838Z,98524.97
2023-02-19T18:34:53.345Z,98531.13
2023-02-19T18:37:20.674Z,98534.72
2023-02-19T18:39:47.952Z,98535.19
2023-02-19T18:42:16.701Z,98547.91
2023-02-19T18:44:46.885Z,98547.38
2023-02-19T18:47:13.960Z,98558.72
2023-02-19T18:49:44.901Z,98562.88
2023-02-19T18:52:12.365Z,98557.72
2023-02-19T18:54:39.666Z,98563.88
2023-02-19T18:57:07.476Z,98560.50
2023-02-19T18:59:35.835Z,98562.06
2023-02-19T19:02:05.067Z,98564.44
2023-02-19T19:04:32.174Z,98565.69
2023-02-19T19:06:59.145Z,98570.53
2023-02-19T19:09:26.043Z,98572.53
2023-02-19T19:11:53.126Z,98572.53
2023-02-19T19:14:20.121Z,98582.41
2023-02-19T19:16:48.895Z,98589.13
2023-02-19T19:19:16.309Z,98607.19
2023-02-19T19:21:43.219Z,98600.69
2023-02-19T19:24:10.224Z,98612.03
2023-02-19T19:26:44.110Z,98611.00
2023-02-19T19:29:11.616Z,98608.97
2023-02-19T19:31:38.727Z,98614.94
2023-02-19T19:34:07.107Z,98611.91
2023-02-19T19:36:34.406Z,98614.13
2023-02-19T19:39:01.356Z,98613.25
2023-02-19T19:41:28.328Z,98612.34
2023-02-19T19:43:55.464Z,98622.75
2023-02-19T19:46:22.479Z,98621.63
2023-02-19T19:48:50.816Z,98617.56
2023-02-19T19:51:19.206Z,98615.13
2023-02-19T19:53:47.488Z,98617.91
2023-02-19T19:56:14.776Z,98619.59
2023-02-19T19:58:41.938Z,98618.00
2023-02-19T20:01:09.031Z,98617.44
2023-02-19T20:03:38.320Z,98605.53
2023-02-19T20:06:05.821Z,98604.56
2023-02-19T20:08:34.124Z,98606.00
2023-02-19T20:11:01.052Z,98608.22
2023-02-19T20:13:30.500Z,98605.31
2023-02-19T20:15:57.902Z,98617.19
2023-02-19T20:18:26.013Z,98615.06
2023-02-19T20:20:52.937Z,98622.78
2023-02-19T20:23:19.945Z,98629.72
2023-02-19T20:25:48.252Z,98610.47
2023-02-19T20:28:15.340Z,98612.03
2023-02-19T20:30:43.756Z,98614.19
2023-02-19T20:33:10.860Z,98621.91
2023-02-19T20:35:37.917Z,98621.47
2023-02-19T20:38:04.816Z,98633.91
2023-02-19T20:40:32.789Z,98642.66
2023-02-19T20:43:03.036Z,98627.75
2023-02-19T20:45:31.433Z,98626.75
2023-02-19T20:47:58.461Z,98644.91
2023-02-19T20:50:26.341Z,98639.53
2023-02-19T20:52:53.569Z,98645.28
2023-02-19T20:55:20.796Z,98638.66
2023-02-19T20:57:47.713Z,98646.97
2023-02-19T21:00:17.142Z,98661.09
2023-02-19T21:02:44.940Z,98663.69
2023-02-19T21:05:11.965Z,98668.47
2023-02-19T21:07:38.926Z,98673.97
2023-02-19T21:10:06.748Z,98676.06
2023-02-19T21:12:33.921Z,98683.00
2023-02-19T21:15:00.865Z,98682.44
2023-02-19T21:17:29.163Z,98688.38
2023-02-19T21:19:56.158Z,98671.78
2023-02-19T21:22:23.144Z,98675.16
2023-02-19T21:24:52.038Z,98674.59
2023-02-19T21:27:19.445Z,98671.41
2023-02-19T21:29:46.680Z,98669.84
2023-02-19T21:32:13.801Z,98670.88
2023-02-19T21:34:42.470Z,98674.09
2023-02-19T21:37:09.448Z,98667.16
2023-02-19T21:39:36.525Z,98676.34
2023-02-19T21:42:03.910Z,98677.69
2023-02-19T21:44:30.829Z,98683.84
2023-02-19T21:46:58.124Z,98680.69
2023-02-19T21:49:25.101Z,98691.06
2023-02-19T21:51:53.423Z,98693.31
2023-02-19T21:54:24.738Z,98695.53
2023-02-19T21:56:52.582Z,98693.97
2023-02-19T21:59:20.954Z,98691.19
2023-02-19T22:01:48.162Z,98690.03
2023-02-19T22:04:16.936Z,98690.47
2023-02-19T22:06:44.241Z,98675.59
2023-02-19T22:09:13.923Z,98681.72
2023-02-19T22:11:40.925Z,98688.47
2023-02-19T22:14:07.970Z,98688.81
2023-02-19T22:16:34.968Z,98682.84
2023-02-19T22:19:01.901Z,98687.69
2023-02-19T22:21:33.442Z,98693.25
2023-02-19T22:24:01.619Z,98696.84
2023-02-19T22:26:32.382Z,98688.91
2023-02-19T22:28:59.793Z,98688.69
2023-02-19T22:31:27.768Z,98681.03
2023-02-19T22:33:56.503Z,98680.25
2023-02-19T22:36:25.257Z,98689.75
2023-02-19T22:38:53.023Z,98683.38
2023-02-19T22:41:20.626Z,98683.81
2023-02-19T22:43:49.971Z,98703.88
2023-02-19T22:46:19.731Z,98702.53
2023-02-19T22:48:47.209Z,98703.38
2023-02-19T22:51:16.970Z,98698.66
2023-02-19T22:53:45.249Z,98699.06
2023-02-19T22:56:12.950Z,98697.94
2023-02-19T22:58:40.356Z,98692.78
2023-02-19T23:01:09.021Z,98685.06
2023-02-19T23:03:45.405Z,98682.91
2023-02-19T23:06:12.617Z,98681.75
2023-02-19T23:08:39.714Z,98676.66
2023-02-19T23:11:06.698Z,98667.16
2023-02-19T23:13:33.635Z,98664.03
2023-02-19T23:16:00.997Z,98665.84
2023-02-19T23:18:29.279Z,98662.13
2023-02-19T23:20:56.241Z,98667.13
2023-02-19T23:23:23.153Z,98668.56
2023-02-19T23:25:50.062Z,98670.00
2023-02-19T23:28:16.998Z,98670.25
2023-02-19T23:30:44.019Z,98654.69
2023-02-19T23:33:10.992Z,98673.09
2023-02-19T23:35:39.281Z,98665.22
2023-02-19T23:38:06.275Z,98667.25
2023-02-19T23:40:33.277Z,98667.50
2023-02-19T23:43:00.502Z,98672.91
2023-02-19T23:45:27.477Z,98673.53
2023-02-19T23:47:54.427Z,98666.69
2023-02-19T23:50:21.463Z,98674.22
2023-02-19T23:52:50.145Z,98676.78
2023-02-19T23:55:17.150Z,98681.00
2023-02-19T23:57:44.072Z,98679.84
